クリスマス島 の空港の天気 - METARとTAF

クリスマス島空港 ( YPXM / XCH ) - クリスマス島 クリスマス島
飛行場実況気象(Metar)
観測時間09/26 03:30 CXT (09/25 20:30 UTC)
風向・風速南東 5m/s
視程10km以上
天気現象
全天を覆う雲 雲底高度 300m
気温24℃
湿度89%
気圧1013hPa
METARYPXM 252030Z AUTO 13009KT 9999 // OVC010 24/22 Q1013 RF00.0/000.0
過去の天気等 Google飛行場航空写真 Wunderground天気予報

過去48時間のMETAR

飛行場予報(TAF)
発表時間: 9/26 00:01 CXT (9/25 17:01 UTC)
予報対象時間: 26日1時 CXT ~ 27日1時 CXT
風向・風速東南東 7m/s
視程10km以上
全天の8割程度の雲 雲底高度 300m
26日23時 CXT ~ 27日1時 CXT に一時的に
視程4000m
天気現象しゅう雨
全天の8割程度の雲 雲底高度 150m
TAF YPXM 251701Z 2518/2618 11014KT 9999 BKN010
TEMPO 2616/2618 4000 SHRA BKN005